createdAt,value
2023-05-09T00:00:25.077Z,102293.19
2023-05-09T00:02:54.296Z,102305.50
2023-05-09T00:05:22.840Z,102319.66
2023-05-09T00:07:51.122Z,102299.22
2023-05-09T00:10:19.293Z,102301.84
2023-05-09T00:12:49.705Z,102318.72
2023-05-09T00:15:19.169Z,102311.69
2023-05-09T00:17:50.890Z,102310.84
2023-05-09T00:20:19.802Z,102310.84
2023-05-09T00:22:48.588Z,102309.09
2023-05-09T00:25:17.355Z,102307.25
2023-05-09T00:27:45.699Z,102285.97
2023-05-09T00:30:14.521Z,102308.06
2023-05-09T00:32:42.788Z,102301.91
2023-05-09T00:35:12.917Z,102302.84
2023-05-09T00:37:41.609Z,102294.81
2023-05-09T00:40:10.889Z,102296.56
2023-05-09T00:42:39.157Z,102293.06
2023-05-09T00:45:08.741Z,102301.03
2023-05-09T00:47:37.674Z,102291.25
2023-05-09T00:50:07.972Z,102291.22
2023-05-09T00:52:37.965Z,102294.75
2023-05-09T00:55:08.524Z,102288.59
2023-05-09T00:57:40.364Z,102292.94
2023-05-09T01:00:13.591Z,102264.66
2023-05-09T01:02:43.202Z,102278.94
2023-05-09T01:05:12.425Z,102294.75
2023-05-09T01:07:48.569Z,102271.84
2023-05-09T01:10:24.419Z,102287.78
2023-05-09T01:13:05.754Z,102271.78
2023-05-09T01:15:40.931Z,102275.34
2023-05-09T01:18:19.711Z,102277.13
2023-05-09T01:20:54.900Z,102280.59
2023-05-09T01:23:45.545Z,102282.34
2023-05-09T01:26:20.438Z,102273.59
2023-05-09T01:29:07.902Z,102246.13
2023-05-09T01:31:42.164Z,102269.13
2023-05-09T01:34:12.611Z,102273.56
2023-05-09T01:36:42.932Z,102264.69
2023-05-09T01:39:13.732Z,102259.41
2023-05-09T01:41:42.149Z,102247.00
2023-05-09T01:44:14.334Z,102258.53
2023-05-09T01:46:45.739Z,102254.09
2023-05-09T01:49:16.421Z,102223.09
2023-05-09T01:51:45.789Z,102250.50
2023-05-09T01:54:14.862Z,102242.53
2023-05-09T01:56:44.560Z,102239.91
2023-05-09T01:59:16.523Z,102237.31
2023-05-09T02:01:48.134Z,102201.91
2023-05-09T02:04:19.278Z,102231.09
2023-05-09T02:06:52.870Z,102233.72
2023-05-09T02:09:22.408Z,102200.13
2023-05-09T02:11:50.874Z,102227.59
2023-05-09T02:14:22.148Z,102232.94
2023-05-09T02:16:52.172Z,102218.78
2023-05-09T02:19:20.358Z,102222.31
2023-05-09T02:21:49.420Z,102218.78
2023-05-09T02:24:18.327Z,102213.50
2023-05-09T02:26:46.711Z,102222.38
2023-05-09T02:29:18.123Z,102217.03
2023-05-09T02:31:49.096Z,102219.63
2023-05-09T02:34:19.578Z,102199.25
2023-05-09T02:36:48.071Z,102204.56
2023-05-09T02:39:16.719Z,102215.13
2023-05-09T02:41:50.665Z,102209.81
2023-05-09T02:44:19.389Z,102204.50
2023-05-09T02:46:47.942Z,102204.53
2023-05-09T02:49:30.831Z,102197.41
2023-05-09T02:52:02.668Z,102192.09
2023-05-09T02:54:31.130Z,102200.06
2023-05-09T02:57:00.651Z,102192.94
2023-05-09T02:59:29.542Z,102181.53
2023-05-09T03:01:57.979Z,102183.28
2023-05-09T03:04:29.032Z,102181.50
2023-05-09T03:06:57.753Z,102192.03
2023-05-09T03:09:27.697Z,102181.53
2023-05-09T03:11:57.024Z,102174.44
2023-05-09T03:14:26.272Z,102138.97
2023-05-09T03:16:55.036Z,102162.06
2023-05-09T03:19:23.291Z,102163.91
2023-05-09T03:21:51.602Z,102149.75
2023-05-09T03:24:19.903Z,102153.25
2023-05-09T03:26:49.688Z,102156.75
2023-05-09T03:29:18.082Z,102168.28
2023-05-09T03:31:46.352Z,102137.31
2023-05-09T03:34:15.474Z,102170.94
2023-05-09T03:36:43.998Z,102155.91
2023-05-09T03:39:12.546Z,102156.84
2023-05-09T03:41:40.800Z,102157.69
2023-05-09T03:44:10.624Z,102156.84
2023-05-09T03:46:39.274Z,102149.88
2023-05-09T03:49:10.403Z,102136.69
2023-05-09T03:51:39.980Z,102142.88
2023-05-09T03:54:10.196Z,102142.94
2023-05-09T03:56:38.588Z,102146.47
2023-05-09T03:59:07.379Z,102145.56
2023-05-09T04:01:40.090Z,102147.34
2023-05-09T04:04:09.003Z,102138.50
2023-05-09T04:06:38.290Z,102143.84
2023-05-09T04:09:07.110Z,102134.16
2023-05-09T04:11:35.386Z,102129.81
2023-05-09T04:14:07.202Z,102135.06
2023-05-09T04:16:37.614Z,102128.88
2023-05-09T04:19:07.268Z,102141.28
2023-05-09T04:21:35.560Z,102140.47
2023-05-09T04:24:03.787Z,102139.56
2023-05-09T04:26:32.831Z,102137.84
2023-05-09T04:29:01.111Z,102114.81
2023-05-09T04:31:29.693Z,102132.53
2023-05-09T04:33:59.657Z,102129.94
2023-05-09T04:36:29.618Z,102141.41
2023-05-09T04:38:58.225Z,102137.88
2023-05-09T04:41:26.399Z,102119.31
2023-05-09T04:43:54.661Z,102124.66
2023-05-09T04:46:25.584Z,102115.81
2023-05-09T04:48:54.024Z,102126.44
2023-05-09T04:51:23.691Z,102097.28
2023-05-09T04:53:52.515Z,102113.19
2023-05-09T04:56:21.902Z,102125.50
2023-05-09T04:58:53.908Z,102122.00
2023-05-09T05:01:22.096Z,102121.13
2023-05-09T05:03:50.693Z,102120.25
2023-05-09T05:06:19.502Z,102113.19
2023-05-09T05:08:50.269Z,102091.13
2023-05-09T05:11:20.591Z,102108.78
2023-05-09T05:16:33.001Z,102102.59
2023-05-09T05:19:02.137Z,102112.31
2023-05-09T05:21:31.104Z,102099.06
2023-05-09T05:24:01.360Z,102104.34
2023-05-09T05:26:29.853Z,102100.81
2023-05-09T05:29:00.219Z,102104.34
2023-05-09T05:31:28.487Z,102106.09
2023-05-09T05:33:56.945Z,102072.53
2023-05-09T05:36:25.202Z,102095.47
2023-05-09T05:38:53.440Z,102070.75
2023-05-09T05:41:23.787Z,102069.81
2023-05-09T05:43:54.098Z,102094.59
2023-05-09T05:46:22.941Z,102071.56
2023-05-09T05:48:51.618Z,102058.28
2023-05-09T05:51:19.877Z,102042.38
2023-05-09T05:53:50.891Z,102070.59
2023-05-09T05:56:20.337Z,102069.66
2023-05-09T05:58:50.087Z,102060.78
2023-05-09T06:01:18.620Z,102030.75
2023-05-09T06:03:50.028Z,102068.72
2023-05-09T06:06:18.584Z,102058.97
2023-05-09T06:08:46.702Z,102056.34
2023-05-09T06:11:15.976Z,102049.28
2023-05-09T06:13:44.785Z,102055.41
2023-05-09T06:16:20.134Z,102033.41
2023-05-09T06:18:48.890Z,102049.25
2023-05-09T06:21:17.266Z,102037.69
2023-05-09T06:24:01.265Z,102040.34
2023-05-09T06:26:33.702Z,102037.66
2023-05-09T06:29:02.213Z,102032.34
2023-05-09T06:31:32.308Z,102030.59
2023-05-09T06:34:01.174Z,102023.47
2023-05-09T06:36:29.551Z,102031.38
2023-05-09T06:38:57.681Z,102024.25
2023-05-09T06:41:26.208Z,102031.34
2023-05-09T06:43:54.955Z,102027.75
2023-05-09T06:46:23.371Z,102027.72
2023-05-09T06:48:53.289Z,102016.97
2023-05-09T06:51:21.676Z,102020.56
2023-05-09T06:53:50.231Z,102031.13
2023-05-09T06:56:20.217Z,102013.25
2023-05-09T06:58:50.620Z,101978.91
2023-05-09T07:01:18.877Z,102007.94
2023-05-09T07:03:47.772Z,102003.34
2023-05-09T07:06:17.670Z,102001.56
2023-05-09T07:08:46.068Z,101997.22
2023-05-09T07:11:14.441Z,101982.06
2023-05-09T07:13:42.636Z,101993.41
2023-05-09T07:16:11.471Z,101985.41
2023-05-09T07:18:40.063Z,101983.59
2023-05-09T07:21:08.726Z,101989.81
2023-05-09T07:23:40.731Z,101972.19
2023-05-09T07:26:08.945Z,101983.50
2023-05-09T07:28:39.266Z,101982.50
2023-05-09T07:31:09.704Z,101957.63
2023-05-09T07:33:37.820Z,101969.06
2023-05-09T07:36:06.437Z,101962.66
2023-05-09T07:38:34.955Z,101961.78
2023-05-09T07:41:04.771Z,101946.84
2023-05-09T07:43:33.224Z,101958.41
2023-05-09T07:46:04.277Z,101945.94
2023-05-09T07:48:32.564Z,101942.94
2023-05-09T07:51:03.456Z,101947.22
2023-05-09T07:53:32.564Z,101937.78
2023-05-09T07:56:01.068Z,101910.47
2023-05-09T07:58:30.834Z,101911.28
2023-05-09T08:00:59.807Z,101927.25
2023-05-09T08:03:28.155Z,101920.41
2023-05-09T08:05:56.920Z,101913.34
2023-05-09T08:08:25.289Z,101916.56
2023-05-09T08:10:53.716Z,101923.53
2023-05-09T08:13:22.585Z,101914.66
2023-05-09T08:15:52.629Z,101902.31
2023-05-09T08:18:21.085Z,101919.38
2023-05-09T08:20:49.678Z,101903.31
2023-05-09T08:23:18.024Z,101892.03
2023-05-09T08:25:46.325Z,101908.00
2023-05-09T08:28:14.652Z,101907.31
2023-05-09T08:30:43.219Z,101898.22
2023-05-09T08:33:13.481Z,101884.84
2023-05-09T08:35:41.626Z,101897.88
2023-05-09T08:38:10.221Z,101887.53
2023-05-09T08:40:38.856Z,101871.41
2023-05-09T08:43:08.843Z,101883.25
2023-05-09T08:45:47.212Z,101882.72
2023-05-09T08:48:18.002Z,101858.44
2023-05-09T08:50:46.700Z,101900.88
2023-05-09T08:53:15.580Z,101870.41
2023-05-09T08:55:43.846Z,101871.06
2023-05-09T08:58:15.295Z,101886.53
2023-05-09T09:00:43.781Z,101884.75
2023-05-09T09:03:12.529Z,101880.81
2023-05-09T09:05:44.050Z,101880.31
2023-05-09T09:08:12.754Z,101865.91
2023-05-09T09:10:47.519Z,101848.09
2023-05-09T09:13:17.713Z,101886.09
2023-05-09T09:15:48.169Z,101870.59
2023-05-09T09:18:22.788Z,101857.34
2023-05-09T09:20:59.315Z,101866.59
2023-05-09T09:23:30.828Z,101871.97
2023-05-09T09:26:03.405Z,101839.44
2023-05-09T09:28:36.249Z,101878.25
2023-05-09T09:31:24.209Z,101851.13
2023-05-09T09:33:53.417Z,101867.59
2023-05-09T09:36:32.073Z,101852.09
2023-05-09T09:39:02.628Z,101842.94
2023-05-09T09:41:35.293Z,101847.88
2023-05-09T09:44:09.164Z,101841.63
2023-05-09T09:46:45.059Z,101852.81
2023-05-09T09:49:14.601Z,101838.97
2023-05-09T09:51:44.931Z,101837.97
2023-05-09T09:54:14.230Z,101843.63
2023-05-09T09:56:45.169Z,101844.19
2023-05-09T09:59:14.841Z,101830.84
2023-05-09T10:02:08.222Z,101805.56
2023-05-09T10:04:37.951Z,101802.16
2023-05-09T10:07:13.753Z,101798.34
2023-05-09T10:09:44.121Z,101815.16
2023-05-09T10:12:14.983Z,101813.63
2023-05-09T10:14:44.568Z,101797.16
2023-05-09T10:17:16.223Z,101765.78
2023-05-09T10:19:47.804Z,101789.50
2023-05-09T10:22:20.071Z,101794.94
2023-05-09T10:24:56.971Z,101796.91
2023-05-09T10:27:29.420Z,101795.06
2023-05-09T10:30:06.001Z,101786.94
2023-05-09T10:32:43.454Z,101790.00
2023-05-09T10:35:14.308Z,101776.00
2023-05-09T10:37:45.288Z,101759.44
2023-05-09T10:40:15.696Z,101751.16
2023-05-09T10:42:45.088Z,101769.13
2023-05-09T10:45:14.771Z,101775.22
2023-05-09T10:47:46.504Z,101755.94
2023-05-09T10:50:16.106Z,101744.38
2023-05-09T10:53:14.515Z,101761.53
2023-05-09T10:55:53.760Z,101745.09
2023-05-09T10:58:26.951Z,101746.41
2023-05-09T11:00:57.776Z,101751.78
2023-05-09T11:03:26.917Z,101744.38
2023-05-09T11:05:57.204Z,101753.75
2023-05-09T11:08:29.465Z,101741.94
2023-05-09T11:11:00.934Z,101732.75
2023-05-09T11:13:33.601Z,101748.72
2023-05-09T11:16:06.765Z,101736.22
2023-05-09T11:18:35.688Z,101755.63
2023-05-09T11:21:10.760Z,101738.09
2023-05-09T11:23:43.516Z,101740.53
2023-05-09T11:26:12.367Z,101739.03
2023-05-09T11:28:40.905Z,101746.50
2023-05-09T11:31:14.135Z,101730.56
2023-05-09T11:33:44.989Z,101736.84
2023-05-09T11:36:18.264Z,101728.44
2023-05-09T11:38:49.370Z,101710.28
2023-05-09T11:41:17.595Z,101689.53
2023-05-09T11:43:47.447Z,101706.44
2023-05-09T11:46:16.256Z,101705.72
2023-05-09T11:48:45.350Z,101717.09
2023-05-09T11:51:19.214Z,101710.72
2023-05-09T11:53:54.295Z,101715.63
2023-05-09T11:56:24.266Z,101707.25
2023-05-09T11:58:55.921Z,101711.59
2023-05-09T12:01:24.865Z,101708.63
2023-05-09T12:03:54.002Z,101714.81
2023-05-09T12:06:22.363Z,101720.88
2023-05-09T12:08:53.895Z,101719.56
2023-05-09T12:11:22.571Z,101710.13
2023-05-09T12:13:52.781Z,101696.50
2023-05-09T12:16:22.451Z,101698.00
2023-05-09T12:18:53.342Z,101685.88
2023-05-09T12:21:22.540Z,101688.03
2023-05-09T12:23:57.022Z,101696.06
2023-05-09T12:26:25.610Z,101665.34
2023-05-09T12:28:54.151Z,101675.19
2023-05-09T12:31:22.829Z,101677.31
2023-05-09T12:33:51.272Z,101673.31
2023-05-09T12:36:19.786Z,101670.13
2023-05-09T12:38:56.294Z,101667.84
2023-05-09T12:43:56.318Z,101666.59
2023-05-09T12:46:25.277Z,101657.09
2023-05-09T12:48:53.857Z,101646.25
2023-05-09T12:51:23.747Z,101660.72
2023-05-09T12:53:52.569Z,101654.81
2023-05-09T12:56:23.757Z,101657.00
2023-05-09T12:58:53.219Z,101641.88
2023-05-09T13:01:23.071Z,101645.34
2023-05-09T13:04:01.313Z,101643.09
2023-05-09T13:06:29.930Z,101627.50
2023-05-09T13:09:06.524Z,101643.22
2023-05-09T13:11:37.949Z,101635.78
2023-05-09T13:14:10.062Z,101637.84
2023-05-09T13:16:38.463Z,101623.25
2023-05-09T13:19:07.196Z,101627.72
2023-05-09T13:21:36.718Z,101628.28
2023-05-09T13:24:05.713Z,101604.59
2023-05-09T13:26:35.709Z,101620.09
2023-05-09T13:29:06.447Z,101559.22
2023-05-09T13:31:35.727Z,101591.38
2023-05-09T13:34:07.028Z,101613.00
2023-05-09T13:36:38.384Z,101575.75
2023-05-09T13:39:06.576Z,101608.69
2023-05-09T13:41:38.212Z,101611.53
2023-05-09T13:44:07.838Z,101582.50
2023-05-09T13:46:37.201Z,101599.00
2023-05-09T13:49:06.430Z,101587.03
2023-05-09T13:51:37.143Z,101585.47
2023-05-09T13:54:09.074Z,101588.50
2023-05-09T13:56:39.467Z,101545.69
2023-05-09T13:59:08.656Z,101586.13
2023-05-09T14:01:37.363Z,101582.50
2023-05-09T14:04:06.016Z,101581.81
2023-05-09T14:06:34.741Z,101566.00
2023-05-09T14:09:04.180Z,101588.94
2023-05-09T14:11:33.727Z,101570.94
2023-05-09T14:14:04.008Z,101574.09
2023-05-09T14:16:32.563Z,101577.28
2023-05-09T14:19:02.840Z,101567.28
2023-05-09T14:21:31.031Z,101569.19
2023-05-09T14:24:02.392Z,101571.50
2023-05-09T14:26:31.261Z,101565.44
2023-05-09T14:28:59.722Z,101565.00
2023-05-09T14:31:30.082Z,101571.47
2023-05-09T14:34:01.320Z,101569.19
2023-05-09T14:36:30.510Z,101548.00
2023-05-09T14:39:01.861Z,101533.75
2023-05-09T14:41:30.828Z,101559.16
2023-05-09T14:43:59.896Z,101538.31
2023-05-09T14:46:30.458Z,101536.03
2023-05-09T14:49:04.263Z,101562.75
2023-05-09T14:51:33.597Z,101557.53
2023-05-09T14:54:05.186Z,101523.59
2023-05-09T14:56:35.629Z,101485.28
2023-05-09T14:59:04.433Z,101549.34
2023-05-09T15:01:34.541Z,101552.34
2023-05-09T15:04:06.083Z,101504.75
2023-05-09T15:06:34.385Z,101550.31
2023-05-09T15:09:05.667Z,101527.31
2023-05-09T15:11:46.676Z,101545.00
2023-05-09T15:14:16.918Z,101537.72
2023-05-09T15:16:46.859Z,101540.22
2023-05-09T15:19:15.004Z,101536.53
2023-05-09T15:21:46.270Z,101547.38
2023-05-09T15:24:14.660Z,101527.91
2023-05-09T15:26:48.118Z,101539.44
2023-05-09T15:29:16.613Z,101535.03
2023-05-09T15:31:46.807Z,101530.16
2023-05-09T15:34:15.424Z,101529.06
2023-05-09T15:36:47.714Z,101532.78
2023-05-09T15:39:16.291Z,101491.72
2023-05-09T15:41:44.481Z,101539.00
2023-05-09T15:44:14.592Z,101532.75
2023-05-09T15:46:43.107Z,101522.13
2023-05-09T15:49:12.914Z,101516.69
2023-05-09T15:51:41.464Z,101497.72
2023-05-09T15:54:09.906Z,101513.81
2023-05-09T15:56:38.112Z,101513.59
2023-05-09T15:59:06.664Z,101511.72
2023-05-09T16:01:35.480Z,101505.34
2023-05-09T16:04:05.413Z,101498.47
2023-05-09T16:06:35.545Z,101477.75
2023-05-09T16:09:07.344Z,101503.25
2023-05-09T16:11:36.653Z,101490.47
2023-05-09T16:17:02.612Z,101486.06
2023-05-09T16:19:32.212Z,101500.34
2023-05-09T16:22:03.438Z,101496.06
2023-05-09T16:24:32.767Z,101488.28
2023-05-09T16:27:03.893Z,101453.34
2023-05-09T16:29:34.115Z,101470.28
2023-05-09T16:32:02.796Z,101477.88
2023-05-09T16:34:31.200Z,101481.94
2023-05-09T16:36:59.762Z,101482.28
2023-05-09T16:39:29.679Z,101464.56
2023-05-09T16:41:58.594Z,101493.75
2023-05-09T16:44:27.697Z,101495.44
2023-05-09T16:46:56.142Z,101492.38
2023-05-09T16:49:24.425Z,101427.63
2023-05-09T16:51:55.442Z,101480.59
2023-05-09T16:54:29.903Z,101485.03
2023-05-09T16:57:00.041Z,101490.19
2023-05-09T16:59:28.263Z,101483.56
2023-05-09T17:01:57.813Z,101483.34
2023-05-09T17:07:08.840Z,101475.19
2023-05-09T17:09:37.247Z,101461.91
2023-05-09T17:12:07.427Z,101474.56
2023-05-09T17:14:35.517Z,101466.69
2023-05-09T17:17:06.545Z,101459.91
2023-05-09T17:19:34.903Z,101473.66
2023-05-09T17:22:04.546Z,101466.22
2023-05-09T17:24:35.981Z,101469.44
2023-05-09T17:27:04.405Z,101462.13
2023-05-09T17:29:34.405Z,101453.75
2023-05-09T17:32:12.581Z,101457.81
2023-05-09T17:34:41.412Z,101450.53
2023-05-09T17:37:14.077Z,101458.88
2023-05-09T17:39:44.374Z,101460.28
2023-05-09T17:42:12.987Z,101459.44
2023-05-09T17:44:44.380Z,101459.88
2023-05-09T17:47:16.381Z,101459.03
2023-05-09T17:49:45.658Z,101465.81
2023-05-09T17:52:14.203Z,101464.94
2023-05-09T17:54:44.021Z,101445.41
2023-05-09T17:57:12.725Z,101464.09
2023-05-09T17:59:42.561Z,101451.59
2023-05-09T18:02:13.200Z,101467.00
2023-05-09T18:04:45.821Z,101469.78
2023-05-09T18:07:14.309Z,101467.06
2023-05-09T18:09:42.916Z,101473.88
2023-05-09T18:12:11.206Z,101476.53
2023-05-09T18:14:40.509Z,101484.00
2023-05-09T18:17:10.135Z,101471.84
2023-05-09T18:19:40.153Z,101476.31
2023-05-09T18:22:08.262Z,101482.38
2023-05-09T18:24:36.853Z,101479.03
2023-05-09T18:27:07.671Z,101444.19
2023-05-09T18:29:38.981Z,101468.94
2023-05-09T18:32:07.114Z,101472.22
2023-05-09T18:37:27.258Z,101487.78
2023-05-09T18:39:58.845Z,101486.03
2023-05-09T18:42:27.070Z,101486.09
2023-05-09T18:44:56.021Z,101484.72
2023-05-09T18:47:28.999Z,101449.63
2023-05-09T18:50:05.833Z,101441.03
2023-05-09T18:52:38.051Z,101481.22
2023-05-09T18:55:10.574Z,101486.38
2023-05-09T18:57:39.518Z,101450.59
2023-05-09T19:00:15.618Z,101485.69
2023-05-09T19:02:44.232Z,101479.47
2023-05-09T19:05:14.588Z,101492.94
2023-05-09T19:07:43.220Z,101475.22
2023-05-09T19:10:13.409Z,101474.47
2023-05-09T19:12:41.920Z,101481.38
2023-05-09T19:15:11.683Z,101478.69
2023-05-09T19:17:40.791Z,101464.13
2023-05-09T19:20:10.375Z,101457.53
2023-05-09T19:22:44.319Z,101475.84
2023-05-09T19:25:12.443Z,101467.84
2023-05-09T19:27:40.809Z,101478.97
2023-05-09T19:30:15.473Z,101483.34
2023-05-09T19:32:44.134Z,101494.06
2023-05-09T19:35:12.709Z,101470.81
2023-05-09T19:37:42.462Z,101498.84
2023-05-09T19:40:11.503Z,101500.69
2023-05-09T19:42:43.175Z,101493.66
2023-05-09T19:45:12.215Z,101495.56
2023-05-09T19:47:40.703Z,101500.75
2023-05-09T19:50:12.705Z,101504.25
2023-05-09T19:52:42.518Z,101478.06
2023-05-09T19:55:11.524Z,101502.66
2023-05-09T19:57:40.246Z,101506.97
2023-05-09T20:00:12.158Z,101509.66
2023-05-09T20:02:43.098Z,101497.75
2023-05-09T20:05:11.814Z,101486.59
2023-05-09T20:07:44.437Z,101494.38
2023-05-09T20:10:15.599Z,101506.53
2023-05-09T20:12:45.636Z,101510.19
2023-05-09T20:15:13.995Z,101514.41
2023-05-09T20:17:42.630Z,101487.13
2023-05-09T20:20:15.028Z,101503.94
2023-05-09T20:22:45.072Z,101487.31
2023-05-09T20:25:13.780Z,101500.50
2023-05-09T20:27:44.287Z,101494.38
2023-05-09T20:30:16.228Z,101494.69
2023-05-09T20:32:45.278Z,101487.81
2023-05-09T20:35:13.765Z,101458.13
2023-05-09T20:37:42.878Z,101503.78
2023-05-09T20:40:17.009Z,101495.25
2023-05-09T20:42:45.801Z,101493.38
2023-05-09T20:45:14.698Z,101452.88
2023-05-09T20:47:46.178Z,101447.84
2023-05-09T20:50:15.043Z,101430.72
2023-05-09T20:52:44.156Z,101476.84
2023-05-09T20:55:17.324Z,101481.22
2023-05-09T20:57:45.748Z,101418.63
2023-05-09T21:00:15.722Z,101483.41
2023-05-09T21:02:47.322Z,101485.22
2023-05-09T21:05:15.757Z,101452.06
2023-05-09T21:07:44.571Z,101462.53
2023-05-09T21:10:17.608Z,101459.28
2023-05-09T21:12:46.371Z,101475.25
2023-05-09T21:15:17.979Z,101461.19
2023-05-09T21:17:47.238Z,101473.72
2023-05-09T21:20:16.746Z,101462.13
2023-05-09T21:22:48.184Z,101478.94
2023-05-09T21:25:18.295Z,101478.78
2023-05-09T21:27:47.004Z,101470.91
2023-05-09T21:30:18.622Z,101459.72
2023-05-09T21:32:47.586Z,101456.28
2023-05-09T21:35:16.518Z,101464.84
2023-05-09T21:37:45.458Z,101472.19
2023-05-09T21:40:17.088Z,101470.41
2023-05-09T21:42:48.461Z,101473.22
2023-05-09T21:45:18.754Z,101455.78
2023-05-09T21:47:47.677Z,101466.13
2023-05-09T21:50:16.469Z,101458.38
2023-05-09T21:52:45.163Z,101471.59
2023-05-09T21:55:13.987Z,101444.53
2023-05-09T21:57:46.791Z,101447.28
2023-05-09T22:00:18.649Z,101448.22
2023-05-09T22:02:47.145Z,101464.03
2023-05-09T22:05:16.272Z,101446.69
2023-05-09T22:07:44.763Z,101458.16
2023-05-09T22:10:13.133Z,101460.03
2023-05-09T22:12:41.789Z,101449.38
2023-05-09T22:15:10.262Z,101451.94
2023-05-09T22:17:40.019Z,101458.16
2023-05-09T22:20:10.923Z,101457.25
2023-05-09T22:22:42.086Z,101461.03
2023-05-09T22:25:10.878Z,101459.16
2023-05-09T22:27:42.324Z,101436.44
2023-05-09T22:30:12.687Z,101453.94
2023-05-09T22:32:42.436Z,101453.81
2023-05-09T22:35:11.652Z,101463.69
2023-05-09T22:37:40.410Z,101462.78
2023-05-09T22:40:10.239Z,101428.63
2023-05-09T22:42:38.738Z,101457.50
2023-05-09T22:45:10.070Z,101454.81
2023-05-09T22:47:38.555Z,101426.63
2023-05-09T22:50:09.964Z,101453.81
2023-05-09T22:52:38.763Z,101435.47
2023-05-09T22:55:07.909Z,101452.91
2023-05-09T22:57:36.229Z,101451.28
2023-05-09T23:00:04.983Z,101443.31
2023-05-09T23:02:33.369Z,101449.53
2023-05-09T23:05:02.624Z,101441.72
2023-05-09T23:07:35.018Z,101432.47
2023-05-09T23:10:03.729Z,101446.59
2023-05-09T23:12:32.906Z,101436.81
2023-05-09T23:15:01.432Z,101422.69
2023-05-09T23:17:30.176Z,101433.19
2023-05-09T23:20:00.714Z,101435.09
2023-05-09T23:22:29.256Z,101414.09
2023-05-09T23:25:00.936Z,101407.25
2023-05-09T23:27:31.558Z,101426.63
2023-05-09T23:29:59.911Z,101431.72
2023-05-09T23:32:28.289Z,101426.34
2023-05-09T23:34:56.528Z,101429.09
2023-05-09T23:37:24.734Z,101421.06
2023-05-09T23:39:53.122Z,101418.41
2023-05-09T23:42:23.036Z,101421.09
2023-05-09T23:44:53.467Z,101419.34
2023-05-09T23:47:21.984Z,101431.78
2023-05-09T23:49:50.125Z,101421.09
2023-05-09T23:52:18.346Z,101411.69
2023-05-09T23:54:46.698Z,101431.84
2023-05-09T23:57:15.315Z,101406.31
2023-05-09T23:59:45.728Z,101424.78
